SKCLSKMD

Guest
Details From SKCL - ALFONSO BONILLA ARAGON INTL
To SKMD - Medellin Olaya Herrera
Flight Number -
Tags decoded
Created
Modified
Stats Distance 176 nm / 325 km
Max Altitude 0 ft / 0 m
Waypoints 5
Social Downloads 2
Likes 0
Share VATSIM

Download

Looking for another format? Having issues loading an existing format? Contact us
Advertisement - Login to hide

Notes

Requested: SKCL ULQ PEI RNG SKMD

Route

SKCL ULQ PEI RNG SKMD

ID Type Via Altitude Latitude Longitude Leg Dist Tot Dist Heading (true) Name
O SKCL APT - 0 ft / 0 m 3.54322˚ -76.38159˚ - 0 nm - ALFONSO BONILLA ARAGON INTL
ULQ VOR - 0 ft / 0 m 4.09158˚ -76.22328˚ 34 nm 34 nm 16° / 16° TULUA VOR-DME
PEI VOR - 0 ft / 0 m 4.78297˚ -75.83578˚ 47 nm 81 nm 29° / 29° PEREIRA VOR-DME
RNG VOR - 0 ft / 0 m 5.98056˚ -75.41833˚ 76 nm 157 nm 19° / 19° RIONEGRO VOR-DME
O SKMD APT - 0 ft / 0 m 6.21996˚ -75.59052˚ 17 nm 175 nm 324° / 324° Medellin Olaya Herrera

Altitude Profile

Advertisement - Login to hide

Weather


0- 5 10 15 20 25 30 35+ Temperature / ° C

Clouds and Precipitation
Forecast for 2018-05-24 18:00 UTC. Updated an hour ago

Ground ~20,000 ft ~40,000 ft Winds

SKCL

Details ICAO SKCL (CLO)
Name ALFONSO BONILLA ARAGON INTL
Region Colombia
Timezone America/Bogota (UTC-5.0)
Stats Elevation 3,162 ft / 964 m (AMSL)
Location 3.543221° -76.381587°
Runways 1
Magnetic Variation 5.649° W

METAR

SKCL 241800Z 16005KT 9999 FEW020 BKN120 27/20 A3000

Decode

TAF

Not found

Departure Runways

ID Width Length Bearing (true) Bearing (mag) Surface Threshold Offset Overrun Length
01 148 ft / 45 m 9,869 ft / 3,008 m 9.91° 15.56° Asphalt 0 ft / 0 m 50 ft / 15 m
19 148 ft / 45 m 9,869 ft / 3,008 m 189.91° 195.56° Asphalt 0 ft / 0 m 65 ft / 20 m

SKMD

Details ICAO SKMD (EOH)
Name Medellin Olaya Herrera
Region Colombia
Timezone America/Bogota (UTC-5.0)
Stats Elevation 4,940 ft / 1,506 m (AMSL)
Location 6.219958° -75.590519°
Runways 1
Magnetic Variation 6.592° W

METAR

SKMD 241700Z 00000KT 9999 FEW035 27/16 A3014

Decode

TAF

Not found

Destination Runways

ID Width Length Bearing (true) Bearing (mag) Surface Threshold Offset Overrun Length
02 148 ft / 45 m 8,324 ft / 2,537 m 10.66° 17.25° Asphalt 1,316 ft / 401 m 0 ft / 0 m
20 148 ft / 45 m 8,324 ft / 2,537 m 190.66° 197.25° Asphalt 1,012 ft / 308 m 0 ft / 0 m

Popular Alternatives